Time;durP1;ratioP1;P1;durP2;ratioP2;P2;SDS_P1;SDS_P2;PMS_P1;PMS_P2;Temp;Humidity;BMP_temperature;BMP_pressure;BME280_temperature;BME280_humidity;BME280_pressure;Samples;Min_cycle;Max_cycle;Signal;HPM_P1;HPM_P2
2022/06/09 00:00:26;;;;;;;22.80;4.85;;;25.30;89.70;;;;;;5091489;28;20051;-71
2022/06/09 00:03:37;;;;;;;20.20;3.75;;;25.30;90.00;;;;;;5091678;28;20043;-72
2022/06/09 00:06:52;;;;;;;20.58;4.75;;;25.30;89.30;;;;;;5090890;28;20039;-71
2022/06/09 00:10:06;;;;;;;23.13;4.53;;;25.20;89.70;;;;;;5091871;28;20055;-71
2022/06/09 00:13:10;;;;;;;18.17;3.83;;;25.10;90.00;;;;;;5091562;28;20047;-72
2022/06/09 00:16:14;;;;;;;14.80;3.72;;;25.10;90.20;;;;;;5090999;28;20039;-72
2022/06/09 00:19:18;;;;;;;24.60;4.70;;;25.10;90.30;;;;;;5091594;28;20050;-70
2022/06/09 00:22:23;;;;;;;19.15;4.55;;;25.10;90.30;;;;;;5090780;28;20296;-70
2022/06/09 00:25:26;;;;;;;21.13;5.13;;;25.10;90.40;;;;;;5091307;28;20043;-71
2022/06/09 00:28:30;;;;;;;28.42;4.10;;;25.00;90.40;;;;;;5090599;28;20051;-70
2022/06/09 00:31:34;;;;;;;20.80;4.80;;;25.00;90.50;;;;;;5091320;28;20534;-71
2022/06/09 00:34:38;;;;;;;32.10;5.32;;;25.10;90.50;;;;;;5090600;28;20054;-71
2022/06/09 00:37:42;;;;;;;19.50;3.75;;;24.90;90.60;;;;;;5091161;28;20043;-71
2022/06/09 00:40:47;;;;;;;24.13;5.28;;;24.80;90.90;;;;;;5090272;28;20252;-71
2022/06/09 00:43:51;;;;;;;25.98;4.70;;;24.80;91.00;;;;;;5091532;28;20059;-71
2022/06/09 00:47:04;;;;;;;17.55;4.07;;;24.60;91.20;;;;;;5091364;28;20039;-72
2022/06/09 00:50:17;;;;;;;25.88;4.50;;;24.60;91.40;;;;;;5090855;28;20091;-71
2022/06/09 00:53:31;;;;;;;21.02;4.07;;;24.70;91.20;;;;;;5091252;28;20047;-70
2022/06/09 00:56:39;;;;;;;21.10;4.82;;;24.80;91.20;;;;;;5090104;28;20043;-72
2022/06/09 00:59:48;;;;;;;14.98;4.30;;;24.70;91.20;;;;;;5090836;28;20502;-69
2022/06/09 01:02:55;;;;;;;20.27;5.07;;;24.80;91.10;;;;;;5091281;28;20051;-71
2022/06/09 01:06:08;;;;;;;22.55;5.15;;;24.80;91.10;;;;;;5091039;28;20043;-70
2022/06/09 01:09:19;;;;;;;17.20;4.90;;;24.80;91.10;;;;;;5090337;28;20043;-71
2022/06/09 01:12:30;;;;;;;27.80;5.18;;;24.70;91.20;;;;;;5091012;28;20039;-72
2022/06/09 01:15:58;;;;;;;17.00;4.13;;;24.60;91.30;;;;;;5091186;28;20114;-70
2022/06/09 01:19:22;;;;;;;17.83;5.35;;;24.60;91.40;;;;;;5091198;28;20043;-72
2022/06/09 01:23:06;;;;;;;22.63;5.32;;;24.60;91.60;;;;;;5090446;28;20051;-71
2022/06/09 01:26:29;;;;;;;22.08;5.25;;;24.60;91.50;;;;;;5091073;28;20043;-72
2022/06/09 01:29:44;;;;;;;21.10;6.75;;;24.50;91.70;;;;;;5090798;28;20102;-71
2022/06/09 01:32:58;;;;;;;20.92;5.07;;;24.30;92.00;;;;;;5091112;28;20498;-70
2022/06/09 01:36:08;;;;;;;21.30;5.10;;;24.30;92.20;;;;;;5092165;28;20047;-71
2022/06/09 01:39:12;;;;;;;16.75;5.32;;;24.40;92.10;;;;;;5094479;28;20062;-69
2022/06/09 01:42:22;;;;;;;24.13;5.35;;;24.40;91.90;;;;;;5094795;28;20047;-71
2022/06/09 01:45:53;;;;;;;21.08;5.40;;;24.40;91.80;;;;;;5094647;28;20047;-71
2022/06/09 01:49:11;;;;;;;27.05;6.05;;;24.40;91.70;;;;;;5093675;28;20047;-72
2022/06/09 01:52:16;;;;;;;16.08;4.85;;;24.40;91.80;;;;;;5093590;28;20308;-70
2022/06/09 01:55:23;;;;;;;22.77;4.90;;;24.40;91.90;;;;;;5094552;28;20039;-70
2022/06/09 01:58:34;;;;;;;19.52;5.03;;;24.30;91.90;;;;;;5093519;28;20104;-71
2022/06/09 02:01:42;;;;;;;24.45;6.38;;;24.30;92.30;;;;;;5094145;28;20080;-71
2022/06/09 02:04:59;;;;;;;16.58;4.93;;;24.40;92.00;;;;;;5094399;28;20507;-71
2022/06/09 02:08:08;;;;;;;19.20;5.35;;;24.40;91.80;;;;;;5093922;28;20043;-71
2022/06/09 02:11:13;;;;;;;19.50;5.53;;;24.40;91.80;;;;;;5093822;28;20043;-71
2022/06/09 02:14:19;;;;;;;20.35;6.47;;;24.50;91.60;;;;;;5093350;28;20039;-70
2022/06/09 02:17:23;;;;;;;42.78;25.52;;;24.50;91.90;;;;;;5093251;28;20039;-72
2022/06/09 02:20:26;;;;;;;129.15;90.00;;;24.50;91.70;;;;;;5093649;28;20059;-70
2022/06/09 02:23:31;;;;;;;57.70;36.60;;;24.40;91.60;;;;;;5092744;28;20047;-70
2022/06/09 02:26:35;;;;;;;35.13;17.42;;;24.30;91.70;;;;;;5093986;28;20062;-71
2022/06/09 02:29:39;;;;;;;24.70;8.93;;;24.30;91.90;;;;;;5093598;28;20059;-71
2022/06/09 02:32:47;;;;;;;19.23;6.00;;;24.20;92.20;;;;;;5093624;28;20039;-72
2022/06/09 02:35:52;;;;;;;24.20;5.47;;;24.20;92.00;;;;;;5093269;28;20043;-70
2022/06/09 02:38:58;;;;;;;24.40;6.05;;;24.20;92.10;;;;;;5093564;28;20406;-71
2022/06/09 02:42:03;;;;;;;16.50;5.53;;;24.00;92.20;;;;;;5093180;28;20050;-71
2022/06/09 02:45:08;;;;;;;22.00;5.47;;;23.90;92.40;;;;;;5092719;28;20225;-71
2022/06/09 02:48:13;;;;;;;17.52;4.88;;;23.80;92.80;;;;;;5093395;28;20046;-72
2022/06/09 02:51:25;;;;;;;15.30;4.97;;;23.70;92.70;;;;;;5092338;28;20039;-71
2022/06/09 02:54:32;;;;;;;20.95;4.88;;;23.70;92.70;;;;;;5092906;28;20043;-70
2022/06/09 02:57:36;;;;;;;17.88;5.38;;;23.90;92.60;;;;;;5093086;28;20383;-70
2022/06/09 03:00:41;;;;;;;21.85;4.82;;;24.00;92.40;;;;;;5091679;28;20059;-71
2022/06/09 03:03:45;;;;;;;19.40;5.20;;;24.10;92.10;;;;;;5093258;28;20063;-71
2022/06/09 03:06:49;;;;;;;19.70;5.38;;;24.10;92.00;;;;;;5093130;28;20047;-71
2022/06/09 03:09:53;;;;;;;16.40;5.30;;;24.10;92.10;;;;;;5091894;28;20506;-71
2022/06/09 03:12:57;;;;;;;21.20;6.25;;;24.00;92.30;;;;;;5093111;28;20043;-72
2022/06/09 03:16:01;;;;;;;23.23;5.70;;;24.10;92.10;;;;;;5092992;28;20051;-70
2022/06/09 03:19:05;;;;;;;22.50;6.10;;;24.00;92.30;;;;;;5093118;28;20039;-72
2022/06/09 03:22:10;;;;;;;19.60;5.03;;;23.90;92.70;;;;;;5092508;28;20395;-71
2022/06/09 03:25:15;;;;;;;18.52;5.38;;;23.80;92.70;;;;;;5092759;28;20039;-70
2022/06/09 03:28:19;;;;;;;21.38;5.32;;;23.80;92.90;;;;;;5092516;28;20324;-71
2022/06/09 03:31:23;;;;;;;18.33;5.28;;;23.70;93.30;;;;;;5092379;28;20106;-69
2022/06/09 03:34:27;;;;;;;20.23;5.60;;;23.80;92.90;;;;;;5079695;28;20039;-71
2022/06/09 03:37:31;;;;;;;25.08;5.35;;;23.70;92.90;;;;;;5092392;28;20047;-72
2022/06/09 03:40:35;;;;;;;26.90;5.43;;;23.80;93.00;;;;;;5079863;28;20055;-70
2022/06/09 03:43:39;;;;;;;18.73;5.03;;;23.80;92.70;;;;;;5092332;28;20043;-70
2022/06/09 03:46:43;;;;;;;31.27;6.05;;;23.80;92.90;;;;;;5091385;28;20051;-71
2022/06/09 03:49:47;;;;;;;20.73;5.13;;;23.80;92.80;;;;;;5091399;28;20043;-72
2022/06/09 03:52:51;;;;;;;34.80;6.32;;;23.80;92.70;;;;;;5091991;28;20043;-71
2022/06/09 03:55:57;;;;;;;18.90;5.57;;;23.70;93.10;;;;;;5092133;28;20507;-72
2022/06/09 03:59:03;;;;;;;25.60;5.68;;;23.70;93.30;;;;;;5079183;28;20051;-73
2022/06/09 04:02:07;;;;;;;28.35;6.55;;;23.70;93.50;;;;;;5090961;28;20244;-72
2022/06/09 04:05:13;;;;;;;22.98;5.20;;;23.80;93.10;;;;;;5091759;28;20031;-71
2022/06/09 04:08:17;;;;;;;16.50;4.47;;;23.90;93.30;;;;;;5091875;28;20058;-71
2022/06/09 04:11:23;;;;;;;20.25;5.00;;;24.00;93.10;;;;;;5091536;28;20043;-71
2022/06/09 04:14:26;;;;;;;24.20;5.80;;;24.10;92.60;;;;;;5090576;28;20047;-70
2022/06/09 04:17:34;;;;;;;22.17;5.47;;;24.20;92.60;;;;;;5091142;28;20039;-71
2022/06/09 04:20:38;;;;;;;17.88;5.00;;;24.30;92.50;;;;;;5091469;28;20055;-72
2022/06/09 04:23:43;;;;;;;19.60;5.03;;;24.30;92.30;;;;;;5092288;28;20051;-72
2022/06/09 04:26:48;;;;;;;13.73;4.25;;;24.30;91.90;;;;;;5091438;28;20039;-70
2022/06/09 04:29:52;;;;;;;17.38;4.35;;;24.40;91.50;;;;;;5091538;28;20521;-72
2022/06/09 04:32:57;;;;;;;16.75;4.30;;;24.40;91.40;;;;;;5091616;28;20043;-72
2022/06/09 04:36:01;;;;;;;23.15;4.43;;;24.40;91.60;;;;;;5090553;28;20043;-72
2022/06/09 04:39:06;;;;;;;24.65;5.10;;;24.30;91.70;;;;;;5091305;28;20047;-72
2022/06/09 04:42:11;;;;;;;18.33;4.45;;;24.20;92.00;;;;;;5091356;28;20404;-72
2022/06/09 04:45:14;;;;;;;23.38;4.43;;;24.20;91.80;;;;;;5091091;28;20051;-71
2022/06/09 04:48:18;;;;;;;22.25;4.95;;;24.20;92.00;;;;;;5091326;28;20391;-70
2022/06/09 04:51:25;;;;;;;31.73;5.07;;;24.10;92.20;;;;;;5091187;28;20494;-70
2022/06/09 04:54:29;;;;;;;28.45;5.07;;;24.20;92.20;;;;;;5091485;28;20062;-69
2022/06/09 04:57:34;;;;;;;36.97;4.88;;;24.30;93.20;;;;;;5091199;28;20043;-71
2022/06/09 05:00:39;;;;;;;37.28;6.28;;;24.40;93.50;;;;;;5090555;28;20051;-71
2022/06/09 05:03:43;;;;;;;41.65;5.93;;;24.30;94.10;;;;;;5090780;28;20367;-70
2022/06/09 05:06:47;;;;;;;31.23;4.93;;;24.10;95.00;;;;;;5091240;28;20047;-71
2022/06/09 05:09:51;;;;;;;28.45;5.38;;;23.90;95.60;;;;;;5090778;28;20039;-71
2022/06/09 05:12:56;;;;;;;29.23;4.90;;;23.80;96.20;;;;;;5094009;28;20190;-72
2022/06/09 05:16:00;;;;;;;21.33;5.25;;;23.70;96.80;;;;;;5095139;28;20051;-70
2022/06/09 05:19:04;;;;;;;30.38;5.47;;;23.80;96.60;;;;;;5094617;28;20047;-70
2022/06/09 05:22:08;;;;;;;32.72;5.68;;;23.80;96.20;;;;;;5094646;28;20234;-69
2022/06/09 05:25:13;;;;;;;36.58;5.15;;;23.80;96.70;;;;;;5095047;28;20043;-69
2022/06/09 05:28:19;;;;;;;26.95;5.70;;;23.70;96.80;;;;;;5094821;28;20047;-73
2022/06/09 05:31:23;;;;;;;41.65;7.20;;;23.90;96.30;;;;;;5095057;28;20494;-70
2022/06/09 05:34:30;;;;;;;31.00;5.20;;;23.80;96.90;;;;;;5093862;28;20055;-70
2022/06/09 05:47:42;;;;;;;21.35;5.40;;;23.80;96.80;;;;;;5095067;28;20039;-73
2022/06/09 05:50:46;;;;;;;21.42;6.00;;;23.90;96.50;;;;;;5094310;28;20055;-72
2022/06/09 05:53:51;;;;;;;26.05;6.60;;;24.00;96.50;;;;;;5094019;28;20062;-71
2022/06/09 05:56:55;;;;;;;28.88;6.22;;;24.10;96.00;;;;;;5094034;28;20035;-70
2022/06/09 05:59:59;;;;;;;29.23;5.50;;;24.10;96.20;;;;;;5093945;28;20058;-70
2022/06/09 06:03:03;;;;;;;23.77;5.38;;;24.10;95.60;;;;;;5093990;28;20431;-73
2022/06/09 06:09:29;;;;;;;20.45;5.43;;;24.10;96.20;;;;;;5094004;28;20629;-71
2022/06/09 06:12:33;;;;;;;21.65;5.55;;;23.80;96.40;;;;;;5093707;28;20054;-73
2022/06/09 06:15:37;;;;;;;17.30;5.40;;;23.70;96.90;;;;;;5094069;28;20110;-72
2022/06/09 06:18:41;;;;;;;24.42;4.82;;;23.80;96.20;;;;;;5093824;28;20035;-74
2022/06/09 06:21:47;;;;;;;22.23;5.65;;;23.60;95.90;;;;;;5093165;28;20055;-71
2022/06/09 06:24:51;;;;;;;19.15;4.90;;;23.70;96.50;;;;;;5069935;28;20043;-75
2022/06/09 06:27:55;;;;;;;18.88;5.30;;;23.70;96.30;;;;;;5094194;28;20047;-77
2022/06/09 06:31:02;;;;;;;21.92;5.97;;;23.60;96.20;;;;;;5093005;28;20051;-74
2022/06/09 06:34:06;;;;;;;18.65;5.95;;;23.70;96.50;;;;;;5093428;28;20039;-79
2022/06/09 06:37:10;;;;;;;18.38;5.15;;;23.80;97.00;;;;;;5092705;28;20395;-73
2022/06/09 06:40:15;;;;;;;22.30;5.15;;;23.90;96.70;;;;;;5093415;28;20043;-72
2022/06/09 06:43:19;;;;;;;19.05;5.13;;;24.00;96.20;;;;;;5093492;28;20076;-73
2022/06/09 06:46:27;;;;;;;23.30;5.65;;;24.10;96.10;;;;;;5093272;28;20043;-71
2022/06/09 06:49:31;;;;;;;16.95;4.85;;;24.20;95.80;;;;;;5093553;28;20043;-74
2022/06/09 06:52:35;;;;;;;31.77;7.00;;;24.20;95.90;;;;;;5093410;28;20051;-70
2022/06/09 06:55:40;;;;;;;17.73;4.90;;;24.40;95.80;;;;;;5093280;28;20510;-74
2022/06/09 06:58:44;;;;;;;25.13;5.97;;;24.40;96.10;;;;;;5093046;28;20043;-72
2022/06/09 07:01:48;;;;;;;17.55;4.72;;;24.50;95.50;;;;;;5092907;28;20241;-74
2022/06/09 07:04:52;;;;;;;18.15;4.30;;;24.80;95.00;;;;;;5093342;28;20047;-74
2022/06/09 07:07:56;;;;;;;24.67;4.13;;;25.30;93.90;;;;;;5093368;28;20059;-77
2022/06/09 07:11:00;;;;;;;27.23;4.20;;;25.90;91.80;;;;;;5080225;28;20043;-72
2022/06/09 07:14:04;;;;;;;19.25;4.85;;;26.20;90.40;;;;;;5093407;28;20059;-73
2022/06/09 07:17:08;;;;;;;16.13;3.63;;;26.20;90.00;;;;;;5092915;28;20043;-74
2022/06/09 07:20:14;;;;;;;24.17;4.40;;;26.10;90.00;;;;;;5092282;28;20043;-73
2022/06/09 07:23:18;;;;;;;13.10;3.33;;;26.00;90.00;;;;;;5093009;28;20498;-75
2022/06/09 07:26:22;;;;;;;25.77;4.45;;;25.90;90.00;;;;;;5092496;28;20051;-71
2022/06/09 07:29:26;;;;;;;14.50;3.40;;;25.80;90.00;;;;;;5092189;28;20049;-75
2022/06/09 07:32:30;;;;;;;22.42;4.13;;;25.70;88.30;;;;;;5092243;28;20498;-73
2022/06/09 07:35:36;;;;;;;25.80;4.28;;;25.60;88.50;;;;;;5092478;28;20380;-73
2022/06/09 07:38:40;;;;;;;22.85;4.13;;;25.60;88.90;;;;;;5092211;28;20046;-72
2022/06/09 07:41:45;;;;;;;18.73;4.03;;;25.70;88.90;;;;;;5090880;28;20055;-73
2022/06/09 07:44:49;;;;;;;15.00;3.72;;;25.70;88.20;;;;;;5091409;28;20047;-72
2022/06/09 07:47:54;;;;;;;20.27;3.97;;;25.60;86.90;;;;;;5091372;28;20054;-75
2022/06/09 07:50:57;;;;;;;20.00;3.47;;;25.50;86.40;;;;;;5091804;28;20051;-75
2022/06/09 07:54:02;;;;;;;14.48;3.00;;;25.50;85.90;;;;;;5092150;28;20498;-74
2022/06/09 07:57:06;;;;;;;17.52;3.83;;;25.40;85.80;;;;;;5092280;28;20047;-80
2022/06/09 08:00:13;;;;;;;9.60;2.90;;;25.40;86.00;;;;;;5091550;28;20071;-76
2022/06/09 08:03:21;;;;;;;19.83;3.72;;;25.40;88.00;;;;;;5092145;28;20055;-75
2022/06/09 08:06:25;;;;;;;7.55;2.83;;;25.40;88.80;;;;;;5091927;28;20039;-77
2022/06/09 08:09:30;;;;;;;10.25;2.75;;;25.40;89.70;;;;;;5091530;28;20042;-73
2022/06/09 08:12:35;;;;;;;11.27;3.38;;;25.40;90.20;;;;;;5093745;28;20043;-73
2022/06/09 08:15:41;;;;;;;20.30;4.25;;;25.40;90.10;;;;;;5091873;28;20051;-74
2022/06/09 08:18:45;;;;;;;13.48;3.50;;;25.40;90.00;;;;;;5092310;28;20426;-79
2022/06/09 08:21:50;;;;;;;15.98;3.72;;;25.50;89.40;;;;;;5092211;28;20122;-85
2022/06/09 08:24:55;;;;;;;20.27;4.15;;;25.50;88.80;;;;;;5091635;28;20039;-85
2022/06/09 08:27:59;;;;;;;13.52;3.72;;;25.70;89.00;;;;;;5092480;28;20494;-80
2022/06/09 08:31:03;;;;;;;28.38;5.18;;;25.70;88.20;;;;;;5090939;28;20035;-76
2022/06/09 08:34:09;;;;;;;13.10;3.53;;;25.70;88.20;;;;;;5091641;28;20051;-76
2022/06/09 08:37:16;;;;;;;17.05;4.50;;;25.60;88.00;;;;;;5091685;28;20046;-77
2022/06/09 08:40:28;;;;;;;14.88;4.43;;;25.60;89.20;;;;;;5079017;28;20051;-79
2022/06/09 08:43:32;;;;;;;;;;;25.60;90.10;;;;;;5091232;28;20051;-74
2022/06/09 08:46:49;;;;;;;11.75;3.50;;;25.50;89.40;;;;;;5091574;28;19915;-77
2022/06/09 08:50:15;;;;;;;16.30;3.80;;;25.50;89.10;;;;;;5089955;28;20055;-69
2022/06/09 08:53:44;;;;;;;12.85;3.63;;;25.40;90.20;;;;;;5078822;28;20051;-71
2022/06/09 08:56:50;;;;;;;17.65;3.50;;;25.50;90.20;;;;;;5091288;28;20043;-66
2022/06/09 08:59:57;;;;;;;18.98;4.25;;;25.60;90.00;;;;;;5090638;28;20055;-66
2022/06/09 09:03:12;;;;;;;18.30;4.00;;;25.70;90.30;;;;;;5091113;28;20055;-70
2022/06/09 09:06:43;;;;;;;18.58;5.60;;;25.90;90.20;;;;;;5091159;28;20039;-75
2022/06/09 09:09:47;;;;;;;15.03;5.07;;;26.10;90.00;;;;;;5090126;28;20501;-77
2022/06/09 09:13:05;;;;;;;23.27;4.88;;;26.20;89.50;;;;;;5078212;28;20047;-73
2022/06/09 09:16:21;;;;;;;31.42;10.82;;;26.10;89.70;;;;;;5090886;28;20067;-73
2022/06/09 09:19:52;;;;;;;20.33;3.70;;;26.00;89.90;;;;;;5091243;28;20039;-73
2022/06/09 09:23:08;;;;;;;15.15;4.00;;;26.10;89.90;;;;;;5091122;28;20502;-73
2022/06/09 09:26:15;;;;;;;23.60;4.03;;;26.10;89.60;;;;;;5091032;28;20402;-75
2022/06/09 09:29:43;;;;;;;16.65;4.10;;;26.30;88.60;;;;;;5090662;28;20118;-71
2022/06/09 09:32:51;;;;;;;45.42;6.00;;;26.40;88.10;;;;;;5090335;28;20075;-72
2022/06/09 09:36:00;;;;;;;33.13;4.43;;;26.40;88.80;;;;;;5091039;28;20043;-71
2022/06/09 09:39:30;;;;;;;23.38;4.68;;;26.40;87.50;;;;;;5090006;28;20285;-72
2022/06/09 09:42:36;;;;;;;27.73;4.85;;;26.50;87.90;;;;;;5090170;28;20063;-73
2022/06/09 09:45:59;;;;;;;17.83;4.63;;;26.90;87.50;;;;;;5090855;28;20043;-71
2022/06/09 09:49:15;;;;;;;33.70;5.22;;;27.10;86.60;;;;;;5090815;28;20055;-71
2022/06/09 09:52:43;;;;;;;21.50;5.00;;;27.10;84.80;;;;;;5090190;28;20407;-74
2022/06/09 09:56:02;;;;;;;21.92;4.28;;;27.00;84.40;;;;;;5089872;28;20051;-73
2022/06/09 09:59:26;;;;;;;16.23;3.92;;;26.80;84.60;;;;;;5094260;28;20051;-74
2022/06/09 10:09:24;;;;;;;23.58;5.18;;;26.90;84.60;;;;;;5093421;28;20055;-72
2022/06/09 10:12:32;;;;;;;25.52;5.18;;;27.10;85.20;;;;;;5094510;28;20241;-74
2022/06/09 10:15:42;;;;;;;16.25;4.30;;;27.20;84.30;;;;;;5093105;28;20051;-73
2022/06/09 10:18:50;;;;;;;31.20;6.40;;;27.30;83.40;;;;;;5094078;28;20494;-74
2022/06/09 10:22:18;;;;;;;20.42;4.53;;;27.30;83.50;;;;;;5093889;28;20048;-73
2022/06/09 10:25:44;;;;;;;25.08;5.13;;;27.20;83.30;;;;;;5094134;28;20043;-73
2022/06/09 10:29:03;;;;;;;22.27;5.10;;;27.10;83.60;;;;;;5093946;28;20070;-74
2022/06/09 10:32:27;;;;;;;20.23;4.22;;;27.10;83.50;;;;;;5093879;28;20051;-73
2022/06/09 10:35:54;;;;;;;14.90;3.53;;;27.10;83.20;;;;;;5093650;28;20035;-74
2022/06/09 10:39:31;;;;;;;22.33;4.72;;;27.10;83.20;;;;;;5093701;28;20059;-74
2022/06/09 10:42:45;;;;;;;14.88;4.00;;;27.20;83.50;;;;;;5092681;28;20051;-73
2022/06/09 10:46:07;;;;;;;22.50;4.28;;;27.20;82.80;;;;;;5093651;28;20051;-73
2022/06/09 10:56:40;;;;;;;20.98;3.88;;;27.00;82.60;;;;;;5092887;28;20047;-75
2022/06/09 11:00:09;;;;;;;15.15;4.25;;;27.00;82.30;;;;;;5093063;28;20047;-78
2022/06/09 11:03:23;;;;;;;30.90;4.45;;;26.90;83.10;;;;;;5081253;28;20059;-77
2022/06/09 11:06:49;;;;;;;18.65;4.63;;;26.80;85.10;;;;;;5093398;28;20043;-79
2022/06/09 11:10:13;;;;;;;34.25;5.78;;;26.80;85.70;;;;;;5092918;28;20412;-75
2022/06/09 11:13:38;;;;;;;24.98;5.10;;;26.70;87.30;;;;;;5093337;28;20043;-77
2022/06/09 11:16:48;;;;;;;23.90;5.10;;;26.60;87.00;;;;;;5093166;28;20047;-76
2022/06/09 11:20:11;;;;;;;17.55;4.03;;;26.50;86.20;;;;;;5092909;28;20043;-78
2022/06/09 11:23:21;;;;;;;24.25;4.65;;;26.40;85.40;;;;;;5093140;28;20407;-81
2022/06/09 11:26:31;;;;;;;17.58;3.67;;;26.40;85.90;;;;;;5092184;28;20036;-76
2022/06/09 11:29:44;;;;;;;21.45;4.30;;;26.40;85.00;;;;;;5092761;28;20047;-77
2022/06/09 11:33:03;;;;;;;30.45;4.38;;;26.50;84.10;;;;;;5092160;28;20051;-76
2022/06/09 11:36:40;;;;;;;15.98;4.05;;;26.50;83.80;;;;;;5092544;28;20043;-75
2022/06/09 11:40:01;;;;;;;9.13;2.97;;;26.60;83.70;;;;;;5080315;28;20055;-75
2022/06/09 11:43:05;;;;;;;20.63;4.20;;;26.70;84.30;;;;;;5092579;28;20063;-76
2022/06/09 11:46:26;;;;;;;21.35;4.13;;;26.80;83.50;;;;;;5092318;28;20043;-76
2022/06/09 11:49:49;;;;;;;13.32;3.30;;;26.90;83.70;;;;;;5092479;28;20275;-74
2022/06/09 11:52:55;;;;;;;17.05;3.92;;;27.10;83.20;;;;;;5091774;28;20097;-77
2022/06/09 11:56:43;;;;;;;13.63;3.50;;;27.20;82.80;;;;;;5091576;28;20043;-76
2022/06/09 12:00:14;;;;;;;11.18;3.33;;;27.20;82.40;;;;;;5092140;28;20154;-77
2022/06/09 12:03:38;;;;;;;12.10;3.40;;;27.30;82.30;;;;;;5092153;28;20055;-74
2022/06/09 12:07:09;;;;;;;12.10;3.42;;;27.30;82.50;;;;;;5091950;28;20403;-75
2022/06/09 12:10:19;;;;;;;;;;;27.30;83.50;;;;;;5092038;28;20043;-78
2022/06/09 12:14:03;;;;;;;18.67;4.13;;;27.20;83.40;;;;;;5091874;28;19915;-75
2022/06/09 12:17:30;;;;;;;19.45;5.63;;;27.10;83.70;;;;;;5091667;28;20047;-78
2022/06/09 12:20:46;;;;;;;15.30;4.10;;;27.10;83.50;;;;;;5090398;28;20046;-78
2022/06/09 12:23:51;;;;;;;17.70;3.85;;;27.00;83.00;;;;;;5089134;28;20059;-74
2022/06/09 12:27:04;;;;;;;20.33;5.22;;;26.90;82.80;;;;;;5089739;28;20043;-78
2022/06/09 12:30:29;;;;;;;24.95;4.50;;;26.90;83.00;;;;;;5078349;28;20047;-79
2022/06/09 12:33:35;;;;;;;23.17;4.97;;;26.80;83.20;;;;;;5089943;28;20063;-75
2022/06/09 12:37:00;;;;;;;16.08;3.92;;;26.70;83.70;;;;;;5077841;28;20051;-77
2022/06/09 12:40:26;;;;;;;21.48;5.15;;;26.50;84.30;;;;;;5091689;28;20415;-74
2022/06/09 12:43:35;;;;;;;22.40;4.88;;;26.50;84.30;;;;;;5091552;28;20067;-75
2022/06/09 12:46:41;;;;;;;37.00;5.25;;;26.40;85.00;;;;;;5091234;28;20043;-78
2022/06/09 12:49:49;;;;;;;20.73;4.10;;;26.40;85.20;;;;;;5091394;28;20043;-76
2022/06/09 12:52:54;;;;;;;25.55;4.45;;;26.40;84.80;;;;;;5091626;28;20047;-76
2022/06/09 12:56:04;;;;;;;25.77;4.85;;;26.40;85.00;;;;;;5091415;28;20498;-78
2022/06/09 12:59:19;;;;;;;31.33;5.10;;;26.40;84.60;;;;;;5090362;28;20039;-75
2022/06/09 13:02:28;;;;;;;16.63;3.92;;;26.40;84.90;;;;;;5091285;28;20314;-77
2022/06/09 13:05:36;;;;;;;18.80;4.38;;;26.30;84.90;;;;;;5091325;28;20047;-76
2022/06/09 13:08:48;;;;;;;38.80;11.90;;;26.30;85.20;;;;;;5091194;28;20047;-75
2022/06/09 13:15:48;;;;;;;19.58;5.00;;;26.30;85.30;;;;;;5091059;28;20043;-74
2022/06/09 13:18:59;;;;;;;22.00;4.72;;;26.30;86.10;;;;;;5090797;28;20043;-76
2022/06/09 13:22:08;;;;;;;29.75;5.40;;;26.30;85.90;;;;;;5090372;28;20051;-74
2022/06/09 13:25:22;;;;;;;17.48;3.60;;;26.30;85.50;;;;;;5078491;28;20036;-69
2022/06/09 13:28:34;;;;;;;21.25;4.80;;;26.40;84.90;;;;;;5090890;28;20039;-68
2022/06/09 13:31:43;;;;;;;21.60;3.05;;;26.40;83.10;;;;;;5091648;28;20043;-71
2022/06/09 13:34:50;;;;;;;27.15;2.60;;;26.10;83.50;;;;;;5094942;28;20039;-72
2022/06/09 13:38:19;;;;;;;15.52;2.28;;;25.50;87.00;;;;;;5093951;28;20051;-70
2022/06/09 13:41:37;;;;;;;13.13;2.55;;;24.80;90.00;;;;;;5095108;28;20043;-70
2022/06/09 13:45:04;;;;;;;7.40;2.30;;;23.80;91.20;;;;;;5093849;28;20075;-70
2022/06/09 13:48:22;;;;;;;9.82;1.92;;;23.30;92.50;;;;;;5094526;28;20041;-70
2022/06/09 13:51:55;;;;;;;6.88;1.88;;;23.30;91.80;;;;;;5094918;28;20043;-67
2022/06/09 13:55:00;;;;;;;4.63;1.65;;;23.30;91.20;;;;;;5094530;28;20036;-75
2022/06/09 13:58:06;;;;;;;9.00;1.98;;;23.50;90.70;;;;;;5094705;28;20047;-73
2022/06/09 14:01:11;;;;;;;8.70;1.63;;;23.60;90.00;;;;;;5093204;28;20044;-74
2022/06/09 14:04:31;;;;;;;5.95;1.85;;;23.50;89.80;;;;;;5094339;28;20048;-75
2022/06/09 14:07:35;;;;;;;8.38;2.03;;;23.00;90.10;;;;;;5094540;28;20040;-76
2022/06/09 14:10:39;;;;;;;7.53;1.98;;;22.60;90.30;;;;;;5094207;28;20040;-76
2022/06/09 14:13:43;;;;;;;15.93;2.63;;;22.70;91.30;;;;;;5093374;28;20051;-73
2022/06/09 14:16:47;;;;;;;14.45;2.85;;;22.80;91.70;;;;;;5094114;28;20039;-72
2022/06/09 14:19:52;;;;;;;11.50;3.60;;;22.80;91.30;;;;;;5093272;28;20039;-73
2022/06/09 14:22:56;;;;;;;9.80;3.90;;;22.60;91.50;;;;;;5093947;28;20055;-70
2022/06/09 14:26:07;;;;;;;15.63;2.78;;;22.30;93.10;;;;;;5093732;28;20047;-70
2022/06/09 14:29:14;;;;;;;8.80;2.30;;;22.40;92.50;;;;;;5093350;28;20395;-69
2022/06/09 14:32:22;;;;;;;11.27;2.50;;;23.00;92.30;;;;;;5093615;28;20044;-70
2022/06/09 14:35:26;;;;;;;6.50;2.40;;;23.40;91.40;;;;;;5093039;28;20043;-68
2022/06/09 14:38:30;;;;;;;7.53;1.92;;;23.70;90.90;;;;;;5093273;28;20035;-67
2022/06/09 14:41:38;;;;;;;6.43;2.08;;;23.60;90.70;;;;;;5093547;28;20051;-73
2022/06/09 14:44:44;;;;;;;7.30;1.80;;;23.60;91.10;;;;;;5092806;28;20054;-70
2022/06/09 14:47:49;;;;;;;7.88;1.90;;;23.60;91.10;;;;;;5093424;28;20043;-72
2022/06/09 14:50:54;;;;;;;8.30;1.92;;;23.60;91.00;;;;;;5092503;28;20047;-69
2022/06/09 14:53:58;;;;;;;5.32;1.70;;;23.70;90.80;;;;;;5091869;28;20040;-72
2022/06/09 14:57:03;;;;;;;5.03;1.70;;;23.80;91.00;;;;;;5092357;28;20043;-74
2022/06/09 15:00:24;;;;;;;6.18;1.85;;;23.90;90.40;;;;;;5092984;28;20047;-73
2022/06/09 15:03:28;;;;;;;4.10;1.60;;;24.30;90.20;;;;;;5092863;28;20511;-72
2022/06/09 15:06:32;;;;;;;9.35;1.77;;;24.70;89.00;;;;;;5091983;28;20498;-73
2022/06/09 15:09:37;;;;;;;3.97;1.40;;;25.10;88.80;;;;;;5092066;28;20040;-73
2022/06/09 15:12:41;;;;;;;9.70;1.40;;;25.10;85.60;;;;;;5092558;28;20036;-75
2022/06/09 15:15:48;;;;;;;2.97;1.33;;;25.30;86.80;;;;;;5092086;28;20031;-78
2022/06/09 15:18:54;;;;;;;7.45;3.63;;;25.40;85.40;;;;;;5092761;28;20063;-72
2022/06/09 15:21:58;;;;;;;6.60;1.88;;;25.00;87.90;;;;;;5092340;28;20054;-75
2022/06/09 15:25:03;;;;;;;8.23;2.17;;;25.00;88.40;;;;;;5093518;28;20046;-73
2022/06/09 15:28:08;;;;;;;4.32;1.83;;;24.60;89.50;;;;;;5080185;28;20045;-78
2022/06/09 15:31:12;;;;;;;6.40;1.83;;;24.50;89.60;;;;;;5091887;28;20028;-75
2022/06/09 15:34:21;;;;;;;8.45;1.85;;;24.40;89.30;;;;;;5091791;28;20422;-74
2022/06/09 15:37:28;;;;;;;4.15;1.45;;;24.40;89.20;;;;;;5092665;28;20031;-75
2022/06/09 15:40:38;;;;;;;9.02;2.60;;;24.60;89.10;;;;;;5091283;28;20032;-74
2022/06/09 15:43:42;;;;;;;9.63;2.83;;;24.60;88.60;;;;;;5091801;28;20048;-76
2022/06/09 15:46:46;;;;;;;7.63;1.98;;;24.60;87.80;;;;;;5091454;28;20044;-77
2022/06/09 15:49:51;;;;;;;6.43;2.28;;;24.20;87.80;;;;;;5091823;28;20036;-73
2022/06/09 15:52:55;;;;;;;8.40;2.38;;;23.80;88.30;;;;;;5091876;28;20050;-72
2022/06/09 15:55:59;;;;;;;7.03;1.83;;;23.50;88.80;;;;;;5091209;28;20383;-71
2022/06/09 15:59:03;;;;;;;16.55;1.60;;;23.50;88.50;;;;;;5091273;28;20511;-74
2022/06/09 16:02:08;;;;;;;6.13;2.00;;;23.50;87.70;;;;;;5091614;28;20038;-71
2022/06/09 16:05:13;;;;;;;5.90;1.50;;;23.70;86.70;;;;;;5091856;28;20040;-72
2022/06/09 16:08:19;;;;;;;5.13;1.50;;;23.70;86.00;;;;;;5091333;28;20035;-71
2022/06/09 16:11:24;;;;;;;5.95;2.40;;;23.80;85.20;;;;;;5091278;28;20058;-72
2022/06/09 16:14:28;;;;;;;7.10;3.20;;;24.00;85.80;;;;;;5079274;28;20039;-73
2022/06/09 16:17:33;;;;;;;9.48;2.13;;;23.60;86.70;;;;;;5090977;28;20036;-74
2022/06/09 16:20:40;;;;;;;7.13;2.22;;;23.50;85.60;;;;;;5091534;28;20044;-77
2022/06/09 16:23:45;;;;;;;9.30;2.63;;;23.60;84.70;;;;;;5089047;28;20052;-67
2022/06/09 16:26:48;;;;;;;6.40;1.77;;;23.50;84.50;;;;;;5089656;28;20047;-70
2022/06/09 16:29:53;;;;;;;9.13;2.33;;;23.20;84.80;;;;;;5089506;28;20494;-69
2022/06/09 16:32:57;;;;;;;7.32;1.60;;;22.90;87.50;;;;;;5089442;28;20048;-73
2022/06/09 16:36:02;;;;;;;7.47;1.48;;;22.50;88.70;;;;;;5089478;28;20036;-70
2022/06/09 16:39:06;;;;;;;6.63;1.42;;;22.30;89.30;;;;;;5090344;28;20383;-73
2022/06/09 16:42:11;;;;;;;4.72;1.70;;;22.30;90.30;;;;;;5091158;28;20051;-68
2022/06/09 16:45:15;;;;;;;8.95;2.28;;;22.10;89.80;;;;;;5091218;28;20047;-68